createdAt,value
2019-03-27T00:00:36.274Z,1022.92
2019-03-27T00:01:36.259Z,1022.99
2019-03-27T00:02:36.232Z,1023.00
2019-03-27T00:03:36.230Z,1023.03
2019-03-27T00:04:36.217Z,1023.01
2019-03-27T00:05:36.248Z,1023.04
2019-03-27T00:06:36.193Z,1023.01
2019-03-27T00:07:36.184Z,1022.97
2019-03-27T00:08:36.174Z,1022.96
2019-03-27T00:09:36.177Z,1022.98
2019-03-27T00:10:36.170Z,1022.96
2019-03-27T00:11:36.152Z,1023.01
2019-03-27T00:12:36.129Z,1023.02
2019-03-27T00:13:36.120Z,1023.00
2019-03-27T00:14:36.108Z,1022.99
2019-03-27T00:15:36.113Z,1022.94
2019-03-27T00:16:36.088Z,1022.94
2019-03-27T00:17:36.080Z,1022.95
2019-03-27T00:18:36.067Z,1022.95
2019-03-27T00:19:36.194Z,1022.96
2019-03-27T00:20:36.111Z,1022.92
2019-03-27T00:21:36.088Z,1022.97
2019-03-27T00:22:36.066Z,1023.02
2019-03-27T00:23:36.062Z,1023.03
2019-03-27T00:24:36.035Z,1023.04
2019-03-27T00:25:36.225Z,1023.09
2019-03-27T00:26:35.988Z,1023.11
2019-03-27T00:27:35.992Z,1023.12
2019-03-27T00:28:36.008Z,1023.15
2019-03-27T00:29:35.987Z,1023.13
2019-03-27T00:30:35.953Z,1023.13
2019-03-27T00:31:35.933Z,1023.12
2019-03-27T00:32:35.923Z,1023.10
2019-03-27T00:33:35.903Z,1023.13
2019-03-27T00:34:35.899Z,1023.11
2019-03-27T00:35:35.912Z,1023.10
2019-03-27T00:36:35.874Z,1023.09
2019-03-27T00:37:35.873Z,1023.07
2019-03-27T00:38:35.850Z,1023.08
2019-03-27T00:39:35.846Z,1023.11
2019-03-27T00:40:35.830Z,1023.08
2019-03-27T00:41:35.836Z,1023.11
2019-03-27T00:42:35.812Z,1023.09
2019-03-27T00:43:35.800Z,1023.06
2019-03-27T00:44:35.791Z,1023.04
2019-03-27T00:45:35.785Z,1023.07
2019-03-27T00:46:35.842Z,1023.02
2019-03-27T00:47:35.762Z,1023.02
2019-03-27T00:48:35.749Z,1023.00
2019-03-27T00:49:35.732Z,1022.99
2019-03-27T00:50:35.727Z,1022.97
2019-03-27T00:51:35.732Z,1023.00
2019-03-27T00:52:35.709Z,1022.99
2019-03-27T00:53:35.693Z,1023.04
2019-03-27T00:54:35.688Z,1023.09
2019-03-27T00:55:35.678Z,1023.04
2019-03-27T00:56:35.681Z,1023.08
2019-03-27T00:57:35.729Z,1023.01
2019-03-27T00:58:35.726Z,1022.99
2019-03-27T00:59:35.722Z,1022.98
2019-03-27T01:00:35.738Z,1023.00
2019-03-27T01:01:35.732Z,1022.99
2019-03-27T01:02:35.671Z,1022.99
2019-03-27T01:03:35.623Z,1022.97
2019-03-27T01:04:35.646Z,1022.99
2019-03-27T01:05:35.663Z,1022.98
2019-03-27T01:06:35.756Z,1022.98
2019-03-27T01:07:35.594Z,1022.99
2019-03-27T01:08:35.556Z,1023.05
2019-03-27T01:09:35.538Z,1022.99
2019-03-27T01:10:35.584Z,1022.99
2019-03-27T01:11:35.615Z,1023.03
2019-03-27T01:12:35.557Z,1023.02
2019-03-27T01:13:35.509Z,1023.01
2019-03-27T01:14:35.515Z,1022.98
2019-03-27T01:15:40.133Z,1023.01
2019-03-27T01:16:36.572Z,1022.99
2019-03-27T01:17:35.475Z,1023.00
2019-03-27T01:18:35.459Z,1022.99
2019-03-27T01:19:35.448Z,1022.89
2019-03-27T01:20:35.445Z,1022.87
2019-03-27T01:21:35.610Z,1022.90
2019-03-27T01:22:35.460Z,1022.91
2019-03-27T01:23:35.451Z,1022.93
2019-03-27T01:24:35.424Z,1022.99
2019-03-27T01:25:35.424Z,1022.95
2019-03-27T01:26:35.379Z,1022.99
2019-03-27T01:27:35.905Z,1022.97
2019-03-27T01:28:35.366Z,1022.91
2019-03-27T01:29:35.381Z,1022.98
2019-03-27T01:30:35.370Z,1022.96
2019-03-27T01:31:35.333Z,1022.95
2019-03-27T01:32:35.763Z,1022.94
2019-03-27T01:33:35.393Z,1022.97
2019-03-27T01:34:35.396Z,1022.95
2019-03-27T01:35:35.248Z,1022.94
2019-03-27T01:36:35.241Z,1022.98
2019-03-27T01:37:35.243Z,1023.01
2019-03-27T01:38:35.219Z,1023.02
2019-03-27T01:39:35.212Z,1023.01
2019-03-27T01:40:35.199Z,1023.05
2019-03-27T01:41:35.190Z,1023.06
2019-03-27T01:42:35.191Z,1023.09
2019-03-27T01:43:35.163Z,1023.06
2019-03-27T01:44:35.154Z,1023.11
2019-03-27T01:45:35.141Z,1023.03
2019-03-27T01:46:35.135Z,1023.03
2019-03-27T01:47:35.139Z,1023.05
2019-03-27T01:48:35.114Z,1023.07
2019-03-27T01:49:35.100Z,1023.09
2019-03-27T01:50:35.166Z,1023.06
2019-03-27T01:51:35.101Z,1023.11
2019-03-27T01:52:35.198Z,1023.10
2019-03-27T01:53:35.101Z,1023.09
2019-03-27T01:54:35.099Z,1023.11
2019-03-27T01:55:35.102Z,1023.13
2019-03-27T01:56:35.044Z,1023.14
2019-03-27T01:57:35.111Z,1023.14
2019-03-27T01:58:35.009Z,1023.15
2019-03-27T01:59:34.995Z,1023.11
2019-03-27T02:00:34.984Z,1023.09
2019-03-27T02:01:34.976Z,1023.16
2019-03-27T02:02:34.996Z,1023.16
2019-03-27T02:03:34.952Z,1023.15
2019-03-27T02:04:34.943Z,1023.19
2019-03-27T02:05:34.932Z,1023.19
2019-03-27T02:06:34.920Z,1023.19
2019-03-27T02:07:34.938Z,1023.21
2019-03-27T02:08:34.903Z,1023.22
2019-03-27T02:09:34.896Z,1023.17
2019-03-27T02:10:34.879Z,1023.25
2019-03-27T02:11:34.871Z,1023.21
2019-03-27T02:12:34.858Z,1023.20
2019-03-27T02:13:34.866Z,1023.11
2019-03-27T02:14:34.837Z,1023.16
2019-03-27T02:15:34.826Z,1023.13
2019-03-27T02:16:34.815Z,1023.15
2019-03-27T02:17:34.807Z,1023.14
2019-03-27T02:18:34.857Z,1023.12
2019-03-27T02:19:34.782Z,1023.11
2019-03-27T02:20:34.778Z,1023.11
2019-03-27T02:21:34.763Z,1023.12
2019-03-27T02:22:34.755Z,1023.08
2019-03-27T02:23:34.768Z,1023.09
2019-03-27T02:24:34.736Z,1023.05
2019-03-27T02:25:34.722Z,1023.08
2019-03-27T02:26:34.717Z,1023.05
2019-03-27T02:27:34.697Z,1023.12
2019-03-27T02:28:34.707Z,1023.09
2019-03-27T02:29:34.684Z,1023.13
2019-03-27T02:30:34.674Z,1023.19
2019-03-27T02:31:34.662Z,1023.13
2019-03-27T02:32:34.649Z,1023.12
2019-03-27T02:33:34.656Z,1023.14
2019-03-27T02:34:34.631Z,1023.13
2019-03-27T02:35:34.638Z,1023.15
2019-03-27T02:36:34.604Z,1023.13
2019-03-27T02:37:34.597Z,1023.16
2019-03-27T02:38:34.614Z,1023.14
2019-03-27T02:39:34.574Z,1023.12
2019-03-27T02:40:34.566Z,1023.11
2019-03-27T02:41:34.560Z,1023.12
2019-03-27T02:42:34.608Z,1023.14
2019-03-27T02:43:34.665Z,1023.10
2019-03-27T02:44:34.554Z,1023.08
2019-03-27T02:45:34.542Z,1023.12
2019-03-27T02:46:34.532Z,1023.12
2019-03-27T02:47:34.532Z,1023.20
2019-03-27T02:48:34.528Z,1023.16
2019-03-27T02:49:35.366Z,1023.14
2019-03-27T02:50:34.509Z,1023.17
2019-03-27T02:51:34.452Z,1023.13
2019-03-27T02:52:34.443Z,1023.11
2019-03-27T02:53:34.426Z,1023.12
2019-03-27T02:54:34.434Z,1023.13
2019-03-27T02:55:34.451Z,1023.09
2019-03-27T02:56:34.399Z,1023.14
2019-03-27T02:57:34.396Z,1023.10
2019-03-27T02:58:34.379Z,1023.14
2019-03-27T02:59:34.423Z,1023.15
2019-03-27T03:00:34.358Z,1023.15
2019-03-27T03:01:34.340Z,1023.18
2019-03-27T03:02:34.334Z,1023.16
2019-03-27T03:03:34.322Z,1023.17
2019-03-27T03:04:34.337Z,1023.18
2019-03-27T03:05:34.300Z,1023.22
2019-03-27T03:06:34.291Z,1023.21
2019-03-27T03:07:34.282Z,1023.27
2019-03-27T03:08:34.265Z,1023.27
2019-03-27T03:09:34.276Z,1023.21
2019-03-27T03:10:34.249Z,1023.27
2019-03-27T03:11:34.236Z,1023.22
2019-03-27T03:12:34.829Z,1023.19
2019-03-27T03:13:34.293Z,1023.19
2019-03-27T03:14:34.228Z,1023.18
2019-03-27T03:15:34.298Z,1023.18
2019-03-27T03:16:41.954Z,1023.16
2019-03-27T03:17:35.395Z,1023.18
2019-03-27T03:18:34.215Z,1023.22
2019-03-27T03:19:34.172Z,1023.24
2019-03-27T03:20:34.797Z,1023.24
2019-03-27T03:21:34.178Z,1023.24
2019-03-27T03:22:34.207Z,1023.24
2019-03-27T03:23:34.143Z,1023.28
2019-03-27T03:24:34.127Z,1023.30
2019-03-27T03:25:34.092Z,1023.24
2019-03-27T03:26:34.118Z,1023.25
2019-03-27T03:27:34.078Z,1023.25
2019-03-27T03:28:34.064Z,1023.24
2019-03-27T03:29:34.414Z,1023.27
2019-03-27T03:30:34.049Z,1023.28
2019-03-27T03:31:34.042Z,1023.35
2019-03-27T03:32:34.029Z,1023.27
2019-03-27T03:33:34.040Z,1023.24
2019-03-27T03:34:34.024Z,1023.27
2019-03-27T03:35:33.984Z,1023.34
2019-03-27T03:36:33.976Z,1023.26
2019-03-27T03:37:33.984Z,1023.30
2019-03-27T03:38:33.959Z,1023.35
2019-03-27T03:39:33.942Z,1023.31
2019-03-27T03:40:34.130Z,1023.34
2019-03-27T03:41:33.951Z,1023.34
2019-03-27T03:42:34.213Z,1023.34
2019-03-27T03:43:33.956Z,1023.37
2019-03-27T03:44:34.515Z,1023.38
2019-03-27T03:45:34.282Z,1023.33
2019-03-27T03:46:34.011Z,1023.38
2019-03-27T03:47:33.923Z,1023.38
2019-03-27T03:48:34.038Z,1023.38
2019-03-27T03:49:33.847Z,1023.41
2019-03-27T03:50:33.878Z,1023.41
2019-03-27T03:51:33.822Z,1023.40
2019-03-27T03:52:34.010Z,1023.41
2019-03-27T03:53:34.400Z,1023.46
2019-03-27T03:54:33.805Z,1023.51
2019-03-27T03:55:33.794Z,1023.46
2019-03-27T03:56:33.764Z,1023.48
2019-03-27T03:57:33.757Z,1023.48
2019-03-27T03:58:33.742Z,1023.50
2019-03-27T03:59:33.728Z,1023.53
2019-03-27T04:00:33.886Z,1023.50
2019-03-27T04:01:33.717Z,1023.54
2019-03-27T04:02:33.702Z,1023.47
2019-03-27T04:03:33.688Z,1023.45
2019-03-27T04:04:33.678Z,1023.43
2019-03-27T04:05:33.681Z,1023.44
2019-03-27T04:06:33.658Z,1023.49
2019-03-27T04:07:33.641Z,1023.47
2019-03-27T04:08:33.641Z,1023.51
2019-03-27T04:09:33.623Z,1023.55
2019-03-27T04:10:33.645Z,1023.52
2019-03-27T04:11:33.601Z,1023.54
2019-03-27T04:12:33.598Z,1023.54
2019-03-27T04:13:33.626Z,1023.53
2019-03-27T04:14:33.715Z,1023.52
2019-03-27T04:15:33.733Z,1023.53
2019-03-27T04:16:33.576Z,1023.56
2019-03-27T04:17:33.576Z,1023.51
2019-03-27T04:18:33.538Z,1023.58
2019-03-27T04:19:33.629Z,1023.56
2019-03-27T04:20:33.589Z,1023.56
2019-03-27T04:21:33.520Z,1023.53
2019-03-27T04:22:33.519Z,1023.55
2019-03-27T04:23:33.478Z,1023.53
2019-03-27T04:24:33.470Z,1023.52
2019-03-27T04:26:06.379Z,1023.49
2019-03-27T04:26:34.456Z,1023.56
2019-03-27T04:27:33.436Z,1023.61
2019-03-27T04:28:33.428Z,1023.59
2019-03-27T04:29:33.420Z,1023.60
2019-03-27T04:30:33.430Z,1023.62
2019-03-27T04:31:33.395Z,1023.55
2019-03-27T04:32:33.429Z,1023.65
2019-03-27T04:33:33.380Z,1023.68
2019-03-27T04:34:33.374Z,1023.60
2019-03-27T04:35:33.373Z,1023.64
2019-03-27T04:36:33.349Z,1023.68
2019-03-27T04:37:33.332Z,1023.61
2019-03-27T04:38:33.327Z,1023.65
2019-03-27T04:39:33.312Z,1023.71
2019-03-27T04:40:33.321Z,1023.71
2019-03-27T04:41:33.293Z,1023.66
2019-03-27T04:42:33.291Z,1023.68
2019-03-27T04:43:33.271Z,1023.68
2019-03-27T04:44:33.263Z,1023.75
2019-03-27T04:45:33.269Z,1023.73
2019-03-27T04:46:33.248Z,1023.77
2019-03-27T04:47:33.228Z,1023.76
2019-03-27T04:48:33.220Z,1023.73
2019-03-27T04:49:33.236Z,1023.76
2019-03-27T04:50:33.214Z,1023.75
2019-03-27T04:51:33.190Z,1023.75
2019-03-27T04:52:33.177Z,1023.70
2019-03-27T04:53:33.167Z,1023.77
2019-03-27T04:54:33.156Z,1023.77
2019-03-27T04:55:33.158Z,1023.76
2019-03-27T04:56:33.136Z,1023.76
2019-03-27T04:57:33.123Z,1023.75
2019-03-27T04:58:33.114Z,1023.79
2019-03-27T04:59:33.114Z,1023.82
2019-03-27T05:00:33.114Z,1023.83
2019-03-27T05:01:33.087Z,1023.85
2019-03-27T05:02:33.075Z,1023.85
2019-03-27T05:03:33.062Z,1023.84
2019-03-27T05:04:33.048Z,1023.84
2019-03-27T05:05:33.042Z,1023.86
2019-03-27T05:06:33.038Z,1023.86
2019-03-27T05:07:33.037Z,1023.86
2019-03-27T05:08:33.084Z,1023.90
2019-03-27T05:09:33.008Z,1023.88
2019-03-27T05:10:33.852Z,1023.87
2019-03-27T05:11:33.054Z,1023.88
2019-03-27T05:12:33.010Z,1023.90
2019-03-27T05:13:32.977Z,1023.90
2019-03-27T05:14:32.943Z,1023.91
2019-03-27T05:15:32.931Z,1023.90
2019-03-27T05:16:32.934Z,1023.97
2019-03-27T05:17:45.172Z,1023.94
2019-03-27T05:18:33.898Z,1023.97
2019-03-27T05:19:32.892Z,1024.00
2019-03-27T05:20:32.881Z,1024.00
2019-03-27T05:21:32.884Z,1023.99
2019-03-27T05:22:32.856Z,1024.00
2019-03-27T05:23:32.851Z,1023.99
2019-03-27T05:24:32.839Z,1024.06
2019-03-27T05:25:32.825Z,1024.01
2019-03-27T05:26:32.832Z,1024.06
2019-03-27T05:27:36.039Z,1024.08
2019-03-27T05:28:32.795Z,1024.07
2019-03-27T05:29:32.788Z,1024.00
2019-03-27T05:30:32.776Z,1024.00
2019-03-27T05:31:32.778Z,1024.01
2019-03-27T05:32:32.754Z,1024.03
2019-03-27T05:33:32.935Z,1024.09
2019-03-27T05:34:32.741Z,1024.07
2019-03-27T05:35:32.811Z,1024.10
2019-03-27T05:36:32.720Z,1024.07
2019-03-27T05:37:32.702Z,1024.09
2019-03-27T05:38:32.691Z,1024.12
2019-03-27T05:39:32.685Z,1024.12
2019-03-27T05:40:32.665Z,1024.13
2019-03-27T05:41:32.697Z,1024.11
2019-03-27T05:42:32.652Z,1024.14
2019-03-27T05:43:32.638Z,1024.16
2019-03-27T05:44:32.627Z,1024.17
2019-03-27T05:45:32.613Z,1024.19
2019-03-27T05:46:32.606Z,1024.17
2019-03-27T05:47:32.612Z,1024.20
2019-03-27T05:48:32.584Z,1024.21
2019-03-27T05:49:32.573Z,1024.21
2019-03-27T05:50:32.562Z,1024.25
2019-03-27T05:51:32.550Z,1024.26
2019-03-27T05:52:32.558Z,1024.29
2019-03-27T05:53:32.540Z,1024.26
2019-03-27T05:54:32.519Z,1024.27
2019-03-27T05:55:32.516Z,1024.23
2019-03-27T05:56:32.501Z,1024.27
2019-03-27T05:57:32.509Z,1024.30
2019-03-27T05:58:32.484Z,1024.27
2019-03-27T05:59:32.471Z,1024.29
2019-03-27T06:00:33.605Z,1024.27
2019-03-27T06:01:32.447Z,1024.29
2019-03-27T06:02:32.454Z,1024.30
2019-03-27T06:03:32.428Z,1024.30
2019-03-27T06:04:32.416Z,1024.31
2019-03-27T06:05:32.407Z,1024.37
2019-03-27T06:06:32.393Z,1024.42
2019-03-27T06:07:32.401Z,1024.44
2019-03-27T06:08:32.378Z,1024.42
2019-03-27T06:09:32.364Z,1024.47
2019-03-27T06:10:32.362Z,1024.46
2019-03-27T06:11:32.340Z,1024.48
2019-03-27T06:12:32.359Z,1024.44
2019-03-27T06:13:32.324Z,1024.44
2019-03-27T06:14:32.313Z,1024.48
2019-03-27T06:15:32.309Z,1024.46
2019-03-27T06:16:32.302Z,1024.46
2019-03-27T06:17:32.300Z,1024.49
2019-03-27T06:18:32.275Z,1024.51
2019-03-27T06:19:32.269Z,1024.53
2019-03-27T06:20:32.257Z,1024.54
2019-03-27T06:21:32.248Z,1024.55
2019-03-27T06:22:32.246Z,1024.56
2019-03-27T06:23:32.226Z,1024.54
2019-03-27T06:24:32.211Z,1024.55
2019-03-27T06:25:32.199Z,1024.54
2019-03-27T06:26:32.191Z,1024.54
2019-03-27T06:27:32.208Z,1024.53
2019-03-27T06:28:32.190Z,1024.53
2019-03-27T06:29:32.158Z,1024.62
2019-03-27T06:30:32.154Z,1024.59
2019-03-27T06:31:32.140Z,1024.66
2019-03-27T06:32:32.133Z,1024.58
2019-03-27T06:33:32.131Z,1024.59
2019-03-27T06:34:32.110Z,1024.61
2019-03-27T06:35:32.100Z,1024.65
2019-03-27T06:36:32.088Z,1024.65
2019-03-27T06:37:32.086Z,1024.63
2019-03-27T06:38:32.083Z,1024.67
2019-03-27T06:39:32.056Z,1024.65
2019-03-27T06:40:32.046Z,1024.64
2019-03-27T06:41:32.039Z,1024.70
2019-03-27T06:42:32.026Z,1024.70
2019-03-27T06:43:32.038Z,1024.67
2019-03-27T06:44:32.013Z,1024.56
2019-03-27T06:45:32.008Z,1024.59
2019-03-27T06:46:31.987Z,1024.63
2019-03-27T06:47:31.978Z,1024.61
2019-03-27T06:48:31.982Z,1024.62
2019-03-27T06:49:31.961Z,1024.61
2019-03-27T06:50:31.944Z,1024.56
2019-03-27T06:51:39.912Z,1024.59
2019-03-27T06:52:32.926Z,1024.57
2019-03-27T06:53:31.933Z,1024.53
2019-03-27T06:54:31.903Z,1024.60
2019-03-27T06:55:31.897Z,1024.60
2019-03-27T06:56:31.887Z,1024.66
2019-03-27T06:57:31.869Z,1024.57
2019-03-27T06:58:31.883Z,1024.62
2019-03-27T06:59:31.851Z,1024.57
2019-03-27T07:00:31.837Z,1024.60
2019-03-27T07:01:31.830Z,1024.59
2019-03-27T07:02:31.832Z,1024.61
2019-03-27T07:03:31.822Z,1024.59
2019-03-27T07:04:31.803Z,1024.61
2019-03-27T07:05:31.791Z,1024.62
2019-03-27T07:06:31.779Z,1024.61
2019-03-27T07:07:31.765Z,1024.61
2019-03-27T07:08:31.772Z,1024.62
2019-03-27T07:09:31.747Z,1024.60
2019-03-27T07:10:31.738Z,1024.60
2019-03-27T07:11:31.727Z,1024.63
2019-03-27T07:12:31.714Z,1024.67
2019-03-27T07:13:31.729Z,1024.74
2019-03-27T07:14:31.697Z,1024.71
2019-03-27T07:15:31.692Z,1024.67
2019-03-27T07:16:31.679Z,1024.70
2019-03-27T07:17:31.667Z,1024.76
2019-03-27T07:18:40.092Z,1024.73
2019-03-27T07:19:32.645Z,1024.77
2019-03-27T07:20:31.632Z,1024.72
2019-03-27T07:21:31.624Z,1024.71
2019-03-27T07:22:31.612Z,1024.67
2019-03-27T07:23:31.617Z,1024.70
2019-03-27T07:24:31.593Z,1024.69
2019-03-27T07:25:31.579Z,1024.74
2019-03-27T07:26:31.567Z,1024.77
2019-03-27T07:27:31.557Z,1024.79
2019-03-27T07:28:31.565Z,1024.77
2019-03-27T07:29:31.535Z,1024.77
2019-03-27T07:30:31.529Z,1024.69
2019-03-27T07:31:31.517Z,1024.76
2019-03-27T07:32:31.517Z,1024.77
2019-03-27T07:33:31.511Z,1024.78
2019-03-27T07:34:31.491Z,1024.78
2019-03-27T07:35:31.477Z,1024.79
2019-03-27T07:36:31.465Z,1024.82
2019-03-27T07:37:31.462Z,1024.83
2019-03-27T07:38:31.459Z,1024.84
2019-03-27T07:39:31.431Z,1024.86
2019-03-27T07:40:31.435Z,1024.86
2019-03-27T07:41:31.414Z,1024.87
2019-03-27T07:42:31.402Z,1024.90
2019-03-27T07:43:31.422Z,1024.91
2019-03-27T07:44:31.379Z,1024.91
2019-03-27T07:45:31.382Z,1024.93
2019-03-27T07:46:31.361Z,1024.89
2019-03-27T07:47:31.348Z,1024.97
2019-03-27T07:48:31.360Z,1024.96
2019-03-27T07:49:31.331Z,1024.94
2019-03-27T07:50:31.320Z,1024.88
2019-03-27T07:51:31.309Z,1024.97
2019-03-27T07:52:31.299Z,1024.90
2019-03-27T07:53:31.305Z,1024.90
2019-03-27T07:54:31.276Z,1024.93
2019-03-27T07:55:31.279Z,1024.92
2019-03-27T07:56:31.258Z,1024.94
2019-03-27T07:57:31.248Z,1024.94
2019-03-27T07:58:31.249Z,1024.99
2019-03-27T07:59:31.222Z,1025.05
2019-03-27T08:00:31.215Z,1025.07
2019-03-27T08:01:31.203Z,1025.10
2019-03-27T08:02:31.196Z,1025.10
2019-03-27T08:03:31.224Z,1025.13
2019-03-27T08:04:31.173Z,1025.12
2019-03-27T08:05:31.166Z,1025.10
2019-03-27T08:06:31.167Z,1025.08
2019-03-27T08:07:31.166Z,1025.08
2019-03-27T08:08:31.132Z,1025.08
2019-03-27T08:09:31.134Z,1025.10
2019-03-27T08:10:31.116Z,1025.12
2019-03-27T08:11:31.263Z,1025.15
2019-03-27T08:12:31.090Z,1025.06
2019-03-27T08:13:31.079Z,1025.03
2019-03-27T08:14:31.080Z,1025.11
2019-03-27T08:15:31.057Z,1025.13
2019-03-27T08:16:31.046Z,1025.14
2019-03-27T08:17:31.030Z,1025.16
2019-03-27T08:18:31.026Z,1025.20
2019-03-27T08:19:31.035Z,1025.13
2019-03-27T08:20:31.003Z,1025.11
2019-03-27T08:21:31.473Z,1025.14
2019-03-27T08:22:30.981Z,1025.15
2019-03-27T08:23:30.978Z,1025.13
2019-03-27T08:24:30.982Z,1025.14
2019-03-27T08:25:30.951Z,1025.13
2019-03-27T08:26:30.938Z,1025.14
2019-03-27T08:27:30.931Z,1025.10
2019-03-27T08:28:30.919Z,1025.11
2019-03-27T08:29:30.926Z,1025.14
2019-03-27T08:30:30.893Z,1025.17
2019-03-27T08:31:30.884Z,1025.10
2019-03-27T08:32:30.877Z,1025.19
2019-03-27T08:33:30.866Z,1025.14
2019-03-27T08:34:30.869Z,1025.18
2019-03-27T08:35:30.850Z,1025.17
2019-03-27T08:36:30.837Z,1025.14
2019-03-27T08:37:30.821Z,1025.16
2019-03-27T08:38:30.810Z,1025.18
2019-03-27T08:39:30.829Z,1025.20
2019-03-27T08:40:30.793Z,1025.16
2019-03-27T08:41:30.784Z,1025.16
2019-03-27T08:42:30.777Z,1025.21
2019-03-27T08:43:30.758Z,1025.23
2019-03-27T08:44:30.760Z,1025.21
2019-03-27T08:45:30.735Z,1025.24
2019-03-27T08:46:30.728Z,1025.22
2019-03-27T08:47:30.720Z,1025.30
2019-03-27T08:48:30.707Z,1025.32
2019-03-27T08:49:30.710Z,1025.30
2019-03-27T08:50:30.693Z,1025.30
2019-03-27T08:51:30.689Z,1025.28
2019-03-27T08:52:30.667Z,1025.27
2019-03-27T08:53:30.661Z,1025.23
2019-03-27T08:54:30.682Z,1025.25
2019-03-27T08:55:30.632Z,1025.26
2019-03-27T08:56:30.625Z,1025.29
2019-03-27T08:57:30.616Z,1025.27
2019-03-27T08:58:30.602Z,1025.27
2019-03-27T08:59:30.595Z,1025.24
2019-03-27T09:00:30.597Z,1025.26
2019-03-27T09:01:30.572Z,1025.25
2019-03-27T09:02:30.557Z,1025.27
2019-03-27T09:03:30.554Z,1025.16
2019-03-27T09:04:30.538Z,1025.19
2019-03-27T09:05:30.550Z,1025.18
2019-03-27T09:06:33.902Z,1025.17
2019-03-27T09:07:30.501Z,1025.18
2019-03-27T09:08:30.496Z,1025.18
2019-03-27T09:09:30.489Z,1025.20
2019-03-27T09:10:30.490Z,1025.20
2019-03-27T09:11:30.465Z,1025.19
2019-03-27T09:12:30.453Z,1025.21
2019-03-27T09:13:30.446Z,1025.20
2019-03-27T09:14:30.428Z,1025.23
2019-03-27T09:15:30.446Z,1025.21
2019-03-27T09:16:30.409Z,1025.31
2019-03-27T09:17:30.401Z,1025.27
2019-03-27T09:18:30.398Z,1025.23
2019-03-27T09:19:35.970Z,1025.26
2019-03-27T09:20:31.388Z,1025.28
2019-03-27T09:21:30.360Z,1025.21
2019-03-27T09:22:30.347Z,1025.25
2019-03-27T09:23:30.340Z,1025.21
2019-03-27T09:24:30.330Z,1025.22
2019-03-27T09:25:30.334Z,1025.18
2019-03-27T09:26:30.309Z,1025.27
2019-03-27T09:27:30.307Z,1025.19
2019-03-27T09:28:30.286Z,1025.22
2019-03-27T09:29:30.286Z,1025.19
2019-03-27T09:30:30.283Z,1025.23
2019-03-27T09:31:43.660Z,1025.19
2019-03-27T09:32:31.243Z,1025.23
2019-03-27T09:33:30.237Z,1025.24
2019-03-27T09:34:30.225Z,1025.18
2019-03-27T09:35:30.234Z,1025.26
2019-03-27T09:36:30.208Z,1025.15
2019-03-27T09:37:30.201Z,1025.22
2019-03-27T09:38:30.185Z,1025.27
2019-03-27T09:39:30.194Z,1025.23
2019-03-27T09:40:30.172Z,1025.24
2019-03-27T09:41:30.158Z,1025.20
2019-03-27T09:42:30.140Z,1025.20
2019-03-27T09:43:30.132Z,1025.16
2019-03-27T09:44:30.121Z,1025.21
2019-03-27T09:45:30.153Z,1025.26
2019-03-27T09:46:30.096Z,1025.29
2019-03-27T09:47:30.091Z,1025.32
2019-03-27T09:48:30.078Z,1025.28
2019-03-27T09:49:30.076Z,1025.30
2019-03-27T09:50:30.090Z,1025.32
2019-03-27T09:51:30.047Z,1025.38
2019-03-27T09:52:30.037Z,1025.30
2019-03-27T09:53:30.028Z,1025.33
2019-03-27T09:54:30.020Z,1025.36
2019-03-27T09:55:30.005Z,1025.35
2019-03-27T09:56:30.015Z,1025.31
2019-03-27T09:57:29.987Z,1025.31
2019-03-27T09:58:29.973Z,1025.35
2019-03-27T09:59:29.972Z,1025.28
2019-03-27T10:00:29.969Z,1025.31
2019-03-27T10:01:29.960Z,1025.28
2019-03-27T10:02:29.935Z,1025.36
2019-03-27T10:03:29.924Z,1025.33
2019-03-27T10:04:29.915Z,1025.33
2019-03-27T10:05:29.906Z,1025.37
2019-03-27T10:06:29.910Z,1025.32
2019-03-27T10:07:29.886Z,1025.34
2019-03-27T10:08:29.877Z,1025.34
2019-03-27T10:09:29.862Z,1025.39
2019-03-27T10:10:29.854Z,1025.31
2019-03-27T10:11:29.865Z,1025.32
2019-03-27T10:12:29.836Z,1025.26
2019-03-27T10:13:29.818Z,1025.31
2019-03-27T10:14:29.812Z,1025.30
2019-03-27T10:15:29.805Z,1025.26
2019-03-27T10:16:29.806Z,1025.35
2019-03-27T10:17:29.780Z,1025.33
2019-03-27T10:18:29.856Z,1025.29
2019-03-27T10:19:29.763Z,1025.30
2019-03-27T10:20:29.755Z,1025.33
2019-03-27T10:21:29.755Z,1025.29
2019-03-27T10:22:29.731Z,1025.30
2019-03-27T10:23:29.730Z,1025.33
2019-03-27T10:24:29.723Z,1025.32
2019-03-27T10:25:29.706Z,1025.35
2019-03-27T10:26:29.702Z,1025.32
2019-03-27T10:27:29.684Z,1025.35
2019-03-27T10:28:29.670Z,1025.40
2019-03-27T10:29:29.665Z,1025.39
2019-03-27T10:30:29.652Z,1025.37
2019-03-27T10:31:29.655Z,1025.38
2019-03-27T10:32:29.633Z,1025.37
2019-03-27T10:33:29.625Z,1025.39
2019-03-27T10:34:29.613Z,1025.43
2019-03-27T10:35:29.599Z,1025.37
2019-03-27T10:36:29.614Z,1025.46
2019-03-27T10:37:29.588Z,1025.40
2019-03-27T10:38:29.577Z,1025.34
2019-03-27T10:39:29.562Z,1025.39
2019-03-27T10:40:29.558Z,1025.44
2019-03-27T10:41:29.560Z,1025.36
2019-03-27T10:42:29.530Z,1025.36
2019-03-27T10:43:29.519Z,1025.37
2019-03-27T10:44:29.504Z,1025.44
2019-03-27T10:45:29.499Z,1025.38
2019-03-27T10:46:29.507Z,1025.36
2019-03-27T10:47:29.476Z,1025.38
2019-03-27T10:48:29.471Z,1025.43
2019-03-27T10:49:29.455Z,1025.41
2019-03-27T10:50:29.450Z,1025.41
2019-03-27T10:51:29.465Z,1025.37
2019-03-27T10:52:29.427Z,1025.38
2019-03-27T10:53:29.419Z,1025.38
2019-03-27T10:54:29.410Z,1025.41
2019-03-27T10:55:29.398Z,1025.43
2019-03-27T10:56:29.388Z,1025.43
2019-03-27T10:57:29.391Z,1025.46
2019-03-27T10:58:29.369Z,1025.47
2019-03-27T10:59:29.357Z,1025.46
2019-03-27T11:00:29.346Z,1025.45
2019-03-27T11:01:29.339Z,1025.43
2019-03-27T11:02:29.343Z,1025.43
2019-03-27T11:03:29.317Z,1025.43
2019-03-27T11:04:29.307Z,1025.45
2019-03-27T11:05:29.300Z,1025.45
2019-03-27T11:06:29.299Z,1025.42
2019-03-27T11:07:29.292Z,1025.41
2019-03-27T11:08:29.271Z,1025.42
2019-03-27T11:09:29.260Z,1025.45
2019-03-27T11:10:29.250Z,1025.44
2019-03-27T11:11:29.241Z,1025.40
2019-03-27T11:12:29.242Z,1025.41
2019-03-27T11:13:29.221Z,1025.46
2019-03-27T11:14:37.642Z,1025.40
2019-03-27T11:15:30.198Z,1025.42
2019-03-27T11:16:29.187Z,1025.51
2019-03-27T11:17:29.187Z,1025.47
2019-03-27T11:18:29.167Z,1025.41
2019-03-27T11:19:29.163Z,1025.41
2019-03-27T11:20:31.324Z,1025.40
2019-03-27T11:21:29.137Z,1025.42
2019-03-27T11:22:29.138Z,1025.38
2019-03-27T11:23:29.119Z,1025.36
2019-03-27T11:24:29.111Z,1025.40
2019-03-27T11:25:29.096Z,1025.32
2019-03-27T11:26:29.101Z,1025.38
2019-03-27T11:27:29.098Z,1025.36
2019-03-27T11:28:29.072Z,1025.38
2019-03-27T11:29:29.056Z,1025.37
2019-03-27T11:30:29.047Z,1025.36
2019-03-27T11:31:29.033Z,1025.35
2019-03-27T11:32:29.044Z,1025.41
2019-03-27T11:33:29.165Z,1025.40
2019-03-27T11:34:29.001Z,1025.38
2019-03-27T11:35:28.997Z,1025.35
2019-03-27T11:36:28.989Z,1025.39
2019-03-27T11:37:28.991Z,1025.35
2019-03-27T11:38:28.968Z,1025.38
2019-03-27T11:39:28.956Z,1025.35
2019-03-27T11:40:28.941Z,1025.35
2019-03-27T11:41:28.936Z,1025.30
2019-03-27T11:42:28.951Z,1025.32
2019-03-27T11:43:28.915Z,1025.25
2019-03-27T11:44:28.904Z,1025.26
2019-03-27T11:45:28.897Z,1025.26
2019-03-27T11:46:31.961Z,1025.28
2019-03-27T11:47:28.886Z,1025.32
2019-03-27T11:48:28.873Z,1025.30
2019-03-27T11:49:28.851Z,1025.28
2019-03-27T11:50:28.839Z,1025.28
2019-03-27T11:51:28.828Z,1025.26
2019-03-27T11:52:29.872Z,1025.26
2019-03-27T11:53:28.837Z,1025.28
2019-03-27T11:54:28.797Z,1025.32
2019-03-27T11:55:28.795Z,1025.30
2019-03-27T11:56:28.780Z,1025.29
2019-03-27T11:57:28.770Z,1025.20
2019-03-27T11:58:28.787Z,1025.24
2019-03-27T11:59:28.746Z,1025.25
2019-03-27T12:00:28.742Z,1025.21
2019-03-27T12:01:39.211Z,1025.24
2019-03-27T12:02:29.717Z,1025.23
2019-03-27T12:03:28.725Z,1025.22
2019-03-27T12:04:28.694Z,1025.23
2019-03-27T12:05:28.687Z,1025.21